sensor_id;sensor_type;location;lat;lon;timestamp;pressure;altitude;pressure_sealevel;temperature;humidity
5651;BME280;40241;52.684;9.758;2022-09-09T00:04:26;100640.09;;;17.00;65.34
5651;BME280;40241;52.684;9.758;2022-09-09T00:07:21;100640.09;;;17.00;65.41
5651;BME280;40241;52.684;9.758;2022-09-09T00:14:56;100649.72;;;16.99;65.23
5651;BME280;40241;52.684;9.758;2022-09-09T00:28:23;100640.97;;;16.82;65.19
5651;BME280;40241;52.684;9.758;2022-09-09T00:30:49;100636.50;;;16.79;65.07
5651;BME280;40241;52.684;9.758;2022-09-09T00:33:18;100645.16;;;16.76;65.07
5651;BME280;40241;52.684;9.758;2022-09-09T00:35:56;100643.66;;;16.75;65.39
5651;BME280;40241;52.684;9.758;2022-09-09T00:38:35;100640.91;;;16.75;65.31
5651;BME280;40241;52.684;9.758;2022-09-09T00:41:16;100634.78;;;16.76;65.30
5651;BME280;40241;52.684;9.758;2022-09-09T00:43:49;100647.72;;;16.74;65.27
5651;BME280;40241;52.684;9.758;2022-09-09T00:46:37;100643.66;;;16.75;65.27
5651;BME280;40241;52.684;9.758;2022-09-09T00:49:32;100638.63;;;16.73;65.26
5651;BME280;40241;52.684;9.758;2022-09-09T00:52:26;100639.50;;;16.68;65.48
5651;BME280;40241;52.684;9.758;2022-09-09T00:55:21;100635.75;;;16.66;65.58
5651;BME280;40241;52.684;9.758;2022-09-09T00:57:51;100638.53;;;16.66;65.31
5651;BME280;40241;52.684;9.758;2022-09-09T01:00:29;100640.03;;;16.67;65.52
5651;BME280;40241;52.684;9.758;2022-09-09T01:09:15;100644.09;;;16.66;65.55
5651;BME280;40241;52.684;9.758;2022-09-09T01:17:06;100643.88;;;16.64;65.41
5651;BME280;40241;52.684;9.758;2022-09-09T01:20:10;100655.00;;;16.64;65.66
5651;BME280;40241;52.684;9.758;2022-09-09T01:25:28;100646.97;;;16.60;65.24
5651;BME280;40241;52.684;9.758;2022-09-09T01:27:57;100636.41;;;16.59;65.14
5651;BME280;40241;52.684;9.758;2022-09-09T01:30:25;100635.44;;;16.56;65.27
5651;BME280;40241;52.684;9.758;2022-09-09T01:32:56;100638.22;;;16.56;65.28
5651;BME280;40241;52.684;9.758;2022-09-09T01:37:55;100633.59;;;16.45;65.18
5651;BME280;40241;52.684;9.758;2022-09-09T01:40:21;100632.94;;;16.39;65.34
5651;BME280;40241;52.684;9.758;2022-09-09T01:42:46;100628.66;;;16.38;65.27
5651;BME280;40241;52.684;9.758;2022-09-09T01:45:12;100639.56;;;16.36;65.35
5651;BME280;40241;52.684;9.758;2022-09-09T01:47:37;100629.97;;;16.37;65.48
5651;BME280;40241;52.684;9.758;2022-09-09T01:50:03;100626.22;;;16.35;65.36
5651;BME280;40241;52.684;9.758;2022-09-09T01:52:30;100623.44;;;16.35;65.51
5651;BME280;40241;52.684;9.758;2022-09-09T01:54:56;100618.66;;;16.35;65.56
5651;BME280;40241;52.684;9.758;2022-09-09T01:57:27;100619.06;;;16.39;65.71
5651;BME280;40241;52.684;9.758;2022-09-09T02:00:05;100625.59;;;16.42;65.70
5651;BME280;40241;52.684;9.758;2022-09-09T02:02:39;100630.81;;;16.45;65.57
5651;BME280;40241;52.684;9.758;2022-09-09T02:05:30;100622.16;;;16.49;65.63
5651;BME280;40241;52.684;9.758;2022-09-09T02:08:08;100625.69;;;16.49;65.77
5651;BME280;40241;52.684;9.758;2022-09-09T02:10:45;100627.22;;;16.51;65.76
5651;BME280;40241;52.684;9.758;2022-09-09T02:13:14;100622.63;;;16.53;65.69
5651;BME280;40241;52.684;9.758;2022-09-09T02:18:35;100626.59;;;16.58;65.65
5651;BME280;40241;52.684;9.758;2022-09-09T02:21:03;100624.03;;;16.60;65.83
5651;BME280;40241;52.684;9.758;2022-09-09T02:23:32;100636.81;;;16.63;65.81
5651;BME280;40241;52.684;9.758;2022-09-09T02:25:59;100632.97;;;16.66;65.83
5651;BME280;40241;52.684;9.758;2022-09-09T02:28:26;100621.03;;;16.71;65.83
5651;BME280;40241;52.684;9.758;2022-09-09T02:30:54;100628.81;;;16.72;65.76
5651;BME280;40241;52.684;9.758;2022-09-09T02:33:27;100620.16;;;16.76;65.98
5651;BME280;40241;52.684;9.758;2022-09-09T02:35:55;100623.34;;;16.80;65.77
5651;BME280;40241;52.684;9.758;2022-09-09T02:38:29;100620.56;;;16.80;65.74
5651;BME280;40241;52.684;9.758;2022-09-09T02:40:57;100620.34;;;16.78;65.65
5651;BME280;40241;52.684;9.758;2022-09-09T02:43:24;100621.66;;;16.77;65.75
5651;BME280;40241;52.684;9.758;2022-09-09T02:48:59;100625.50;;;16.74;65.92
5651;BME280;40241;52.684;9.758;2022-09-09T02:54:27;100626.69;;;16.65;65.78
5651;BME280;40241;52.684;9.758;2022-09-09T02:57:04;100626.69;;;16.65;65.68
5651;BME280;40241;52.684;9.758;2022-09-09T02:59:32;100623.47;;;16.61;65.61
5651;BME280;40241;52.684;9.758;2022-09-09T03:01:57;100622.72;;;16.61;65.54
5651;BME280;40241;52.684;9.758;2022-09-09T03:04:23;100625.28;;;16.59;65.59
5651;BME280;40241;52.684;9.758;2022-09-09T03:06:50;100624.53;;;16.58;65.61
5651;BME280;40241;52.684;9.758;2022-09-09T03:09:15;100625.09;;;16.57;65.64
5651;BME280;40241;52.684;9.758;2022-09-09T03:11:41;100626.34;;;16.56;65.72
5651;BME280;40241;52.684;9.758;2022-09-09T03:14:06;100636.19;;;16.57;65.84
5651;BME280;40241;52.684;9.758;2022-09-09T03:16:31;100647.50;;;16.59;65.75
5651;BME280;40241;52.684;9.758;2022-09-09T03:19:00;100647.72;;;16.61;65.81
5651;BME280;40241;52.684;9.758;2022-09-09T03:21:25;100649.75;;;16.60;65.74
5651;BME280;40241;52.684;9.758;2022-09-09T03:23:51;100653.28;;;16.61;65.78
5651;BME280;40241;52.684;9.758;2022-09-09T03:26:16;100640.91;;;16.62;65.77
5651;BME280;40241;52.684;9.758;2022-09-09T03:28:42;100640.91;;;16.62;65.66
5651;BME280;40241;52.684;9.758;2022-09-09T03:31:08;100640.91;;;16.62;65.81
5651;BME280;40241;52.684;9.758;2022-09-09T03:33:38;100640.34;;;16.63;65.76
5651;BME280;40241;52.684;9.758;2022-09-09T03:36:04;100635.56;;;16.64;65.79
5651;BME280;40241;52.684;9.758;2022-09-09T03:38:30;100632.97;;;16.66;65.92
5651;BME280;40241;52.684;9.758;2022-09-09T03:40:57;100635.00;;;16.65;65.83
5651;BME280;40241;52.684;9.758;2022-09-09T03:43:24;100632.97;;;16.66;66.01
5651;BME280;40241;52.684;9.758;2022-09-09T03:45:50;100632.97;;;16.66;65.99
5651;BME280;40241;52.684;9.758;2022-09-09T03:48:17;100641.31;;;16.66;65.98
5651;BME280;40241;52.684;9.758;2022-09-09T03:50:47;100631.69;;;16.67;65.94
5651;BME280;40241;52.684;9.758;2022-09-09T03:53:14;100628.91;;;16.67;65.92
5651;BME280;40241;52.684;9.758;2022-09-09T03:55:44;100637.03;;;16.65;66.01
5651;BME280;40241;52.684;9.758;2022-09-09T03:58:09;100643.34;;;16.65;65.87
5651;BME280;40241;52.684;9.758;2022-09-09T04:00:35;100641.31;;;16.66;65.89
5651;BME280;40241;52.684;9.758;2022-09-09T04:03:01;100642.38;;;16.63;65.94
5651;BME280;40241;52.684;9.758;2022-09-09T04:05:27;100644.63;;;16.64;65.80
5651;BME280;40241;52.684;9.758;2022-09-09T04:07:52;100646.13;;;16.65;65.97
5651;BME280;40241;52.684;9.758;2022-09-09T04:10:18;100653.69;;;16.65;65.89
5651;BME280;40241;52.684;9.758;2022-09-09T04:12:44;100641.09;;;16.64;65.84
5651;BME280;40241;52.684;9.758;2022-09-09T04:15:09;100651.47;;;16.63;65.98
5651;BME280;40241;52.684;9.758;2022-09-09T04:17:35;100642.38;;;16.63;65.91
5651;BME280;40241;52.684;9.758;2022-09-09T04:20:02;100641.88;;;16.64;65.93
5651;BME280;40241;52.684;9.758;2022-09-09T04:22:27;100638.34;;;16.64;65.94
5651;BME280;40241;52.684;9.758;2022-09-09T04:24:53;100636.06;;;16.62;66.13
5651;BME280;40241;52.684;9.758;2022-09-09T04:27:18;100644.41;;;16.62;66.13
5651;BME280;40241;52.684;9.758;2022-09-09T04:29:43;100643.88;;;16.64;66.11
5651;BME280;40241;52.684;9.758;2022-09-09T04:32:08;100638.34;;;16.64;66.08
5651;BME280;40241;52.684;9.758;2022-09-09T04:34:34;100642.59;;;16.65;66.03
5651;BME280;40241;52.684;9.758;2022-09-09T04:36:59;100643.88;;;16.64;66.09
5651;BME280;40241;52.684;9.758;2022-09-09T04:39:25;100637.03;;;16.65;66.03
5651;BME280;40241;52.684;9.758;2022-09-09T04:41:51;100637.03;;;16.65;66.18
5651;BME280;40241;52.684;9.758;2022-09-09T04:44:16;100642.59;;;16.65;66.10
5651;BME280;40241;52.684;9.758;2022-09-09T04:46:41;100644.84;;;16.66;66.32
5651;BME280;40241;52.684;9.758;2022-09-09T04:49:07;100643.56;;;16.67;66.23
5651;BME280;40241;52.684;9.758;2022-09-09T04:51:32;100658.97;;;16.68;66.16
5651;BME280;40241;52.684;9.758;2022-09-09T04:53:58;100657.44;;;16.67;66.25
5651;BME280;40241;52.684;9.758;2022-09-09T04:56:23;100662.25;;;16.67;66.12
5651;BME280;40241;52.684;9.758;2022-09-09T04:58:51;100656.69;;;16.67;66.32
5651;BME280;40241;52.684;9.758;2022-09-09T05:01:19;100652.44;;;16.66;66.27
5651;BME280;40241;52.684;9.758;2022-09-09T05:03:46;100653.19;;;16.66;66.13
5651;BME280;40241;52.684;9.758;2022-09-09T05:06:14;100660.97;;;16.68;66.22
5651;BME280;40241;52.684;9.758;2022-09-09T05:08:41;100660.22;;;16.67;66.31
5651;BME280;40241;52.684;9.758;2022-09-09T05:11:27;100659.47;;;16.67;66.48
5651;BME280;40241;52.684;9.758;2022-09-09T05:13:53;100666.53;;;16.68;66.22
5651;BME280;40241;52.684;9.758;2022-09-09T05:16:19;100672.09;;;16.68;66.30
5651;BME280;40241;52.684;9.758;2022-09-09T05:18:45;100662.91;;;16.60;66.79
5651;BME280;40241;52.684;9.758;2022-09-09T05:21:16;100664.38;;;16.61;66.81
5651;BME280;40241;52.684;9.758;2022-09-09T05:23:42;100682.03;;;16.63;66.73
5651;BME280;40241;52.684;9.758;2022-09-09T05:26:11;100674.88;;;16.68;66.66
5651;BME280;40241;52.684;9.758;2022-09-09T05:28:38;100676.03;;;16.72;66.64
5651;BME280;40241;52.684;9.758;2022-09-09T05:31:05;100669.66;;;16.77;66.55
5651;BME280;40241;52.684;9.758;2022-09-09T05:33:34;100670.81;;;16.82;66.54
5651;BME280;40241;52.684;9.758;2022-09-09T05:36:04;100682.34;;;16.86;66.43
5651;BME280;40241;52.684;9.758;2022-09-09T05:38:32;100674.44;;;16.90;66.51
5651;BME280;40241;52.684;9.758;2022-09-09T05:40:58;100678.91;;;16.93;66.55
5651;BME280;40241;52.684;9.758;2022-09-09T05:43:24;100682.66;;;16.95;66.67
5651;BME280;40241;52.684;9.758;2022-09-09T05:46:36;100667.69;;;16.98;66.96
5651;BME280;40241;52.684;9.758;2022-09-09T05:48:55;100675.50;;;17.00;66.73
5651;BME280;40241;52.684;9.758;2022-09-09T05:51:25;100674.44;;;17.03;66.70
5651;BME280;40241;52.684;9.758;2022-09-09T05:53:52;100689.50;;;17.07;66.84
5651;BME280;40241;52.684;9.758;2022-09-09T05:56:19;100690.13;;;17.13;66.59
5651;BME280;40241;52.684;9.758;2022-09-09T05:58:46;100693.13;;;17.15;66.72
5651;BME280;40241;52.684;9.758;2022-09-09T06:01:20;100699.63;;;17.18;66.77
5651;BME280;40241;52.684;9.758;2022-09-09T06:03:48;100697.06;;;17.20;66.68
5651;BME280;40241;52.684;9.758;2022-09-09T06:06:16;100686.38;;;17.24;66.74
5651;BME280;40241;52.684;9.758;2022-09-09T06:08:43;100695.88;;;17.29;66.96
5651;BME280;40241;52.684;9.758;2022-09-09T06:11:12;100688.50;;;17.31;66.75
5651;BME280;40241;52.684;9.758;2022-09-09T06:13:38;100690.22;;;17.34;66.78
5651;BME280;40241;52.684;9.758;2022-09-09T06:16:06;100694.38;;;17.41;66.83
5651;BME280;40241;52.684;9.758;2022-09-09T06:18:33;100695.50;;;17.45;66.78
5651;BME280;40241;52.684;9.758;2022-09-09T06:21:03;100698.72;;;17.49;66.83
5651;BME280;40241;52.684;9.758;2022-09-09T06:23:30;100701.94;;;17.53;66.85
5651;BME280;40241;52.684;9.758;2022-09-09T06:28:37;100694.63;;;17.63;66.73
5651;BME280;40241;52.684;9.758;2022-09-09T06:31:05;100693.56;;;17.66;66.80
5651;BME280;40241;52.684;9.758;2022-09-09T06:33:35;100696.75;;;17.70;66.89
5651;BME280;40241;52.684;9.758;2022-09-09T06:36:04;100701.44;;;17.75;66.94
5651;BME280;40241;52.684;9.758;2022-09-09T06:38:30;100701.84;;;17.79;66.95
5651;BME280;40241;52.684;9.758;2022-09-09T06:40:57;100695.94;;;17.83;66.90
5651;BME280;40241;52.684;9.758;2022-09-09T06:43:25;100698.63;;;17.88;66.94
5651;BME280;40241;52.684;9.758;2022-09-09T06:45:59;100699.22;;;17.94;67.30
5651;BME280;40241;52.684;9.758;2022-09-09T06:48:25;100700.91;;;17.97;67.10
5651;BME280;40241;52.684;9.758;2022-09-09T06:51:03;100700.03;;;18.03;67.40
5651;BME280;40241;52.684;9.758;2022-09-09T06:53:29;100700.22;;;18.05;67.10
5651;BME280;40241;52.684;9.758;2022-09-09T06:55:54;100698.81;;;18.11;67.20
5651;BME280;40241;52.684;9.758;2022-09-09T06:58:20;100696.66;;;18.17;67.11
5651;BME280;40241;52.684;9.758;2022-09-09T07:00:47;100700.78;;;18.24;67.26
5651;BME280;40241;52.684;9.758;2022-09-09T07:03:13;100689.50;;;18.29;67.26
5651;BME280;40241;52.684;9.758;2022-09-09T07:05:38;100686.78;;;18.37;67.20
5651;BME280;40241;52.684;9.758;2022-09-09T07:08:04;100690.91;;;18.43;67.30
5651;BME280;40241;52.684;9.758;2022-09-09T07:10:30;100687.81;;;18.47;67.31
5651;BME280;40241;52.684;9.758;2022-09-09T07:12:55;100680.59;;;18.51;67.25
5651;BME280;40241;52.684;9.758;2022-09-09T07:15:21;100693.84;;;18.58;67.40
5651;BME280;40241;52.684;9.758;2022-09-09T07:17:48;100690.13;;;18.63;67.43
5651;BME280;40241;52.684;9.758;2022-09-09T07:20:14;100694.28;;;18.70;67.44
5651;BME280;40241;52.684;9.758;2022-09-09T07:22:40;100691.16;;;18.74;67.36
5651;BME280;40241;52.684;9.758;2022-09-09T07:25:06;100693.78;;;18.79;67.29
5651;BME280;40241;52.684;9.758;2022-09-09T07:27:31;100697.16;;;18.85;67.34
5651;BME280;40241;52.684;9.758;2022-09-09T07:29:57;100689.19;;;18.89;67.45
5651;BME280;40241;52.684;9.758;2022-09-09T07:32:22;100689.59;;;18.93;67.32
5651;BME280;40241;52.684;9.758;2022-09-09T07:34:48;100694.06;;;18.96;67.38
5651;BME280;40241;52.684;9.758;2022-09-09T07:37:13;100690.19;;;18.99;67.44
5651;BME280;40241;52.684;9.758;2022-09-09T07:39:39;100699.69;;;19.04;67.30
5651;BME280;40241;52.684;9.758;2022-09-09T07:42:05;100703.63;;;19.08;67.36
5651;BME280;40241;52.684;9.758;2022-09-09T07:44:31;100700.66;;;19.14;67.35
5651;BME280;40241;52.684;9.758;2022-09-09T07:47:00;100703.63;;;19.16;67.29
5651;BME280;40241;52.684;9.758;2022-09-09T07:49:26;100723.75;;;19.22;67.37
5651;BME280;40241;52.684;9.758;2022-09-09T07:51:51;100714.13;;;19.30;67.54
5651;BME280;40241;52.684;9.758;2022-09-09T07:54:18;100713.41;;;19.37;67.63
5651;BME280;40241;52.684;9.758;2022-09-09T07:56:46;100711.22;;;19.43;67.61
5651;BME280;40241;52.684;9.758;2022-09-09T07:59:12;100724.25;;;19.49;67.57
5651;BME280;40241;52.684;9.758;2022-09-09T08:01:39;100731.16;;;19.55;67.60
5651;BME280;40241;52.684;9.758;2022-09-09T08:04:10;100725.25;;;19.59;67.46
5651;BME280;40241;52.684;9.758;2022-09-09T08:06:41;100726.19;;;19.69;67.48
5651;BME280;40241;52.684;9.758;2022-09-09T08:09:08;100724.91;;;19.77;67.37
5651;BME280;40241;52.684;9.758;2022-09-09T08:11:34;100725.13;;;19.87;67.50
5651;BME280;40241;52.684;9.758;2022-09-09T08:14:01;100728.09;;;19.96;67.65
5651;BME280;40241;52.684;9.758;2022-09-09T08:16:29;100727.75;;;20.07;67.72
5651;BME280;40241;52.684;9.758;2022-09-09T08:18:55;100722.38;;;20.17;67.76
5651;BME280;40241;52.684;9.758;2022-09-09T08:21:23;100722.97;;;20.23;67.23
5651;BME280;40241;52.684;9.758;2022-09-09T08:23:50;100722.41;;;20.32;67.44
5651;BME280;40241;52.684;9.758;2022-09-09T08:26:31;100717.38;;;20.46;67.62
5651;BME280;40241;52.684;9.758;2022-09-09T08:28:58;100725.19;;;20.62;67.12
5651;BME280;40241;52.684;9.758;2022-09-09T08:33:51;100729.25;;;20.84;66.90
5651;BME280;40241;52.684;9.758;2022-09-09T08:36:19;100721.03;;;20.93;66.56
5651;BME280;40241;52.684;9.758;2022-09-09T08:38:49;100732.44;;;21.03;66.55
5651;BME280;40241;52.684;9.758;2022-09-09T08:44:23;100739.44;;;21.27;66.43
5651;BME280;40241;52.684;9.758;2022-09-09T08:47:28;100734.38;;;21.33;66.18
5651;BME280;40241;52.684;9.758;2022-09-09T08:57:58;100733.38;;;21.45;66.49
5651;BME280;40241;52.684;9.758;2022-09-09T09:00:38;100740.25;;;21.52;65.96
5651;BME280;40241;52.684;9.758;2022-09-09T09:03:22;100744.25;;;21.74;65.93
5651;BME280;40241;52.684;9.758;2022-09-09T09:09:22;100734.69;;;21.84;64.86
5651;BME280;40241;52.684;9.758;2022-09-09T09:11:54;100742.63;;;22.03;65.23
5651;BME280;40241;52.684;9.758;2022-09-09T09:14:24;100741.59;;;22.15;64.80
5651;BME280;40241;52.684;9.758;2022-09-09T09:16:54;100749.84;;;22.13;64.57
5651;BME280;40241;52.684;9.758;2022-09-09T09:19:22;100748.56;;;22.07;64.74
5651;BME280;40241;52.684;9.758;2022-09-09T09:22:00;100746.69;;;22.09;64.52
5651;BME280;40241;52.684;9.758;2022-09-09T09:24:45;100754.31;;;22.16;63.59
5651;BME280;40241;52.684;9.758;2022-09-09T09:29:58;100755.59;;;22.15;64.08
5651;BME280;40241;52.684;9.758;2022-09-09T09:32:28;100751.34;;;22.14;64.17
5651;BME280;40241;52.684;9.758;2022-09-09T09:34:57;100744.56;;;22.17;64.26
5651;BME280;40241;52.684;9.758;2022-09-09T09:37:28;100744.91;;;22.21;64.04
5651;BME280;40241;52.684;9.758;2022-09-09T09:39:55;100749.03;;;22.20;64.09
5651;BME280;40241;52.684;9.758;2022-09-09T09:42:20;100749.44;;;22.17;63.91
5651;BME280;40241;52.684;9.758;2022-09-09T09:44:46;100759.00;;;22.14;63.98
5651;BME280;40241;52.684;9.758;2022-09-09T09:49:37;100754.34;;;22.09;64.13
5651;BME280;40241;52.684;9.758;2022-09-09T09:52:04;100748.19;;;22.10;64.49
5651;BME280;40241;52.684;9.758;2022-09-09T09:54:33;100748.69;;;22.16;64.20
5651;BME280;40241;52.684;9.758;2022-09-09T09:57:09;100748.25;;;22.27;63.71
5651;BME280;40241;52.684;9.758;2022-09-09T09:59:36;100744.63;;;22.34;63.52
5651;BME280;40241;52.684;9.758;2022-09-09T10:02:13;100747.72;;;22.46;62.95
5651;BME280;40241;52.684;9.758;2022-09-09T10:04:39;100747.13;;;22.48;63.02
5651;BME280;40241;52.684;9.758;2022-09-09T10:07:20;100744.28;;;22.55;62.15
5651;BME280;40241;52.684;9.758;2022-09-09T10:09:56;100732.28;;;22.62;61.68
5651;BME280;40241;52.684;9.758;2022-09-09T10:12:31;100723.63;;;22.68;62.28
5651;BME280;40241;52.684;9.758;2022-09-09T10:15:26;100728.34;;;22.82;62.23
5651;BME280;40241;52.684;9.758;2022-09-09T10:20:51;100723.41;;;23.07;61.46
5651;BME280;40241;52.684;9.758;2022-09-09T10:26:40;100728.25;;;23.24;60.54
5651;BME280;40241;52.684;9.758;2022-09-09T10:46:19;100724.03;;;23.50;58.78
5651;BME280;40241;52.684;9.758;2022-09-09T10:51:59;100720.97;;;23.55;58.37
5651;BME280;40241;52.684;9.758;2022-09-09T10:57:04;100709.63;;;23.90;59.23
5651;BME280;40241;52.684;9.758;2022-09-09T10:59:44;100708.34;;;24.00;58.00
5651;BME280;40241;52.684;9.758;2022-09-09T11:02:16;100710.66;;;23.94;58.05
5651;BME280;40241;52.684;9.758;2022-09-09T11:05:18;100712.84;;;23.86;57.53
5651;BME280;40241;52.684;9.758;2022-09-09T11:10:41;100711.09;;;23.91;58.14
5651;BME280;40241;52.684;9.758;2022-09-09T11:13:23;100705.28;;;24.06;57.64
5651;BME280;40241;52.684;9.758;2022-09-09T11:15:56;100709.34;;;24.22;58.09
5651;BME280;40241;52.684;9.758;2022-09-09T11:18:23;100707.47;;;24.43;57.76
5651;BME280;40241;52.684;9.758;2022-09-09T11:20:56;100707.66;;;24.55;57.19
5651;BME280;40241;52.684;9.758;2022-09-09T11:23:45;100707.38;;;24.61;56.32
5651;BME280;40241;52.684;9.758;2022-09-09T11:26:18;100705.50;;;24.82;56.94
5651;BME280;40241;52.684;9.758;2022-09-09T11:28:56;100705.19;;;24.97;56.75
5651;BME280;40241;52.684;9.758;2022-09-09T11:31:44;100715.88;;;25.08;54.70
5651;BME280;40241;52.684;9.758;2022-09-09T11:42:06;100729.78;;;25.45;54.55
5651;BME280;40241;52.684;9.758;2022-09-09T11:44:32;100725.66;;;25.46;55.04
5651;BME280;40241;52.684;9.758;2022-09-09T11:46:58;100715.84;;;25.27;54.85
5651;BME280;40241;52.684;9.758;2022-09-09T11:49:43;100714.22;;;25.05;53.42
5651;BME280;40241;52.684;9.758;2022-09-09T11:54:49;100725.34;;;24.84;55.14
5651;BME280;40241;52.684;9.758;2022-09-09T11:57:34;100732.28;;;24.74;53.99
5651;BME280;40241;52.684;9.758;2022-09-09T12:00:00;100729.28;;;24.62;54.99
5651;BME280;40241;52.684;9.758;2022-09-09T12:02:28;100716.09;;;24.55;54.80
5651;BME280;40241;52.684;9.758;2022-09-09T12:07:54;100717.53;;;24.37;52.94
5651;BME280;40241;52.684;9.758;2022-09-09T12:10:33;100711.59;;;24.33;53.93
5651;BME280;40241;52.684;9.758;2022-09-09T12:13:20;100718.84;;;24.26;53.28
5651;BME280;40241;52.684;9.758;2022-09-09T12:15:57;100726.78;;;24.20;52.68
5651;BME280;40241;52.684;9.758;2022-09-09T12:18:24;100746.00;;;24.14;54.66
5651;BME280;40241;52.684;9.758;2022-09-09T12:23:55;100765.88;;;23.99;53.78
5651;BME280;40241;52.684;9.758;2022-09-09T12:29:29;100742.03;;;23.91;54.27
5651;BME280;40241;52.684;9.758;2022-09-09T12:34:44;100745.69;;;23.83;54.35
5651;BME280;40241;52.684;9.758;2022-09-09T12:37:35;100743.00;;;23.76;54.03
5651;BME280;40241;52.684;9.758;2022-09-09T12:40:04;100752.69;;;23.65;55.03
5651;BME280;40241;52.684;9.758;2022-09-09T12:42:30;100757.63;;;23.57;55.12
5651;BME280;40241;52.684;9.758;2022-09-09T12:45:03;100744.78;;;23.54;55.16
5651;BME280;40241;52.684;9.758;2022-09-09T12:47:56;100755.94;;;23.45;54.83
5651;BME280;40241;52.684;9.758;2022-09-09T12:50:32;100737.84;;;23.38;54.75
5651;BME280;40241;52.684;9.758;2022-09-09T12:53:06;100735.47;;;23.35;54.36
5651;BME280;40241;52.684;9.758;2022-09-09T12:55:36;100730.97;;;23.32;54.36
5651;BME280;40241;52.684;9.758;2022-09-09T12:58:03;100727.25;;;23.29;54.71
5651;BME280;40241;52.684;9.758;2022-09-09T13:00:31;100734.38;;;23.30;54.61
5651;BME280;40241;52.684;9.758;2022-09-09T13:02:58;100725.78;;;23.28;54.52
5651;BME280;40241;52.684;9.758;2022-09-09T13:05:34;100726.66;;;23.31;54.19
5651;BME280;40241;52.684;9.758;2022-09-09T13:08:11;100720.50;;;23.32;53.49
5651;BME280;40241;52.684;9.758;2022-09-09T13:10:41;100707.41;;;23.35;54.06
5651;BME280;40241;52.684;9.758;2022-09-09T13:13:16;100708.63;;;23.41;53.99
5651;BME280;40241;52.684;9.758;2022-09-09T13:18:46;100709.31;;;23.59;54.38
5651;BME280;40241;52.684;9.758;2022-09-09T13:21:12;100714.97;;;23.68;54.24
5651;BME280;40241;52.684;9.758;2022-09-09T13:23:38;100705.88;;;23.77;53.50
5651;BME280;40241;52.684;9.758;2022-09-09T13:26:06;100710.31;;;23.80;52.95
5651;BME280;40241;52.684;9.758;2022-09-09T13:28:46;100715.50;;;23.84;53.27
5651;BME280;40241;52.684;9.758;2022-09-09T13:31:28;100698.81;;;23.86;52.20
5651;BME280;40241;52.684;9.758;2022-09-09T13:33:54;100701.19;;;23.90;53.04
5651;BME280;40241;52.684;9.758;2022-09-09T13:36:34;100709.19;;;23.93;52.54
5651;BME280;40241;52.684;9.758;2022-09-09T13:39:02;100708.00;;;23.96;53.36
5651;BME280;40241;52.684;9.758;2022-09-09T13:41:35;100711.88;;;24.01;52.70
5651;BME280;40241;52.684;9.758;2022-09-09T13:44:02;100714.84;;;24.03;53.45
5651;BME280;40241;52.684;9.758;2022-09-09T13:48:58;100698.19;;;24.05;52.95
5651;BME280;40241;52.684;9.758;2022-09-09T13:51:51;100703.03;;;24.04;52.55
5651;BME280;40241;52.684;9.758;2022-09-09T13:54:20;100701.31;;;24.09;53.13
5651;BME280;40241;52.684;9.758;2022-09-09T13:56:46;100703.59;;;24.29;52.95
5651;BME280;40241;52.684;9.758;2022-09-09T13:59:14;100699.78;;;24.53;52.81
5651;BME280;40241;52.684;9.758;2022-09-09T14:01:39;100698.03;;;24.58;51.94
5651;BME280;40241;52.684;9.758;2022-09-09T14:04:06;100700.72;;;24.66;52.20
5651;BME280;40241;52.684;9.758;2022-09-09T14:06:32;100690.53;;;24.89;52.09
5651;BME280;40241;52.684;9.758;2022-09-09T14:08:58;100691.56;;;25.13;51.99
5651;BME280;40241;52.684;9.758;2022-09-09T14:11:23;100698.06;;;25.25;51.41
5651;BME280;40241;52.684;9.758;2022-09-09T14:13:48;100693.63;;;25.22;51.35
5651;BME280;40241;52.684;9.758;2022-09-09T14:16:17;100697.94;;;25.13;50.81
5651;BME280;40241;52.684;9.758;2022-09-09T14:18:43;100700.00;;;25.03;51.22
5651;BME280;40241;52.684;9.758;2022-09-09T14:21:10;100705.19;;;24.97;51.44
5651;BME280;40241;52.684;9.758;2022-09-09T14:23:36;100699.28;;;24.93;51.76
5651;BME280;40241;52.684;9.758;2022-09-09T14:26:02;100686.97;;;24.89;51.43
5651;BME280;40241;52.684;9.758;2022-09-09T14:28:28;100685.78;;;24.82;51.49
5651;BME280;40241;52.684;9.758;2022-09-09T14:30:54;100685.34;;;24.76;51.73
5651;BME280;40241;52.684;9.758;2022-09-09T14:33:19;100693.31;;;24.70;51.99
5651;BME280;40241;52.684;9.758;2022-09-09T14:35:44;100695.66;;;24.64;51.98
5651;BME280;40241;52.684;9.758;2022-09-09T14:38:10;100693.75;;;24.57;52.23
5651;BME280;40241;52.684;9.758;2022-09-09T14:40:37;100690.59;;;24.53;52.33
5651;BME280;40241;52.684;9.758;2022-09-09T14:43:03;100683.78;;;24.46;52.47
5651;BME280;40241;52.684;9.758;2022-09-09T14:45:29;100679.63;;;24.38;52.42
5651;BME280;40241;52.684;9.758;2022-09-09T14:47:55;100667.31;;;24.33;52.25
5651;BME280;40241;52.684;9.758;2022-09-09T14:50:21;100667.78;;;24.30;52.68
5651;BME280;40241;52.684;9.758;2022-09-09T14:52:47;100669.28;;;24.31;52.71
5651;BME280;40241;52.684;9.758;2022-09-09T14:55:13;100658.88;;;24.33;52.42
5651;BME280;40241;52.684;9.758;2022-09-09T14:57:38;100665.72;;;24.40;52.40
5651;BME280;40241;52.684;9.758;2022-09-09T15:00:06;100668.41;;;24.47;51.99
5651;BME280;40241;52.684;9.758;2022-09-09T15:02:32;100671.09;;;24.55;52.10
5651;BME280;40241;52.684;9.758;2022-09-09T15:04:57;100661.59;;;24.60;51.78
5651;BME280;40241;52.684;9.758;2022-09-09T15:07:24;100655.56;;;24.64;51.52
5651;BME280;40241;52.684;9.758;2022-09-09T15:09:49;100657.91;;;24.67;51.75
5651;BME280;40241;52.684;9.758;2022-09-09T15:12:15;100659.69;;;24.72;52.10
5651;BME280;40241;52.684;9.758;2022-09-09T15:14:40;100647.28;;;24.75;51.49
5651;BME280;40241;52.684;9.758;2022-09-09T15:17:06;100671.09;;;24.74;51.13
5651;BME280;40241;52.684;9.758;2022-09-09T15:19:31;100655.28;;;24.79;51.12
5651;BME280;40241;52.684;9.758;2022-09-09T15:21:57;100654.84;;;24.82;51.19
5651;BME280;40241;52.684;9.758;2022-09-09T15:24:25;100658.69;;;24.87;51.06